createdAt,value
2018-02-16T00:01:21.810Z,29.77
2018-02-16T00:07:26.336Z,28.40
2018-02-16T00:13:30.862Z,29.00
2018-02-16T00:19:35.402Z,27.10
2018-02-16T00:25:40.718Z,29.27
2018-02-16T00:31:45.253Z,31.03
2018-02-16T00:37:49.827Z,29.20
2018-02-16T00:43:54.746Z,26.97
2018-02-16T00:50:00.148Z,29.90
2018-02-16T00:56:04.659Z,30.57
2018-02-16T01:02:09.254Z,28.83
2018-02-16T01:08:13.725Z,28.97
2018-02-16T01:14:18.227Z,29.27
2018-02-16T01:20:23.022Z,27.27
2018-02-16T01:26:28.271Z,28.13
2018-02-16T01:32:32.911Z,31.20
2018-02-16T01:38:37.509Z,30.03
2018-02-16T01:44:42.631Z,28.07
2018-02-16T01:50:47.114Z,29.10
2018-02-16T01:56:51.888Z,25.27
2018-02-16T02:02:56.460Z,26.60
2018-02-16T02:09:00.974Z,32.50
2018-02-16T02:15:05.648Z,27.77
2018-02-16T02:21:10.123Z,30.40
2018-02-16T02:27:14.618Z,29.00
2018-02-16T02:33:19.511Z,28.90
2018-02-16T02:39:24.433Z,29.27
2018-02-16T02:45:29.043Z,28.50
2018-02-16T02:51:33.514Z,27.17
2018-02-16T02:57:38.055Z,31.50
2018-02-16T03:03:42.630Z,30.40
2018-02-16T03:09:47.116Z,27.80
2018-02-16T03:15:52.235Z,33.10
2018-02-16T03:21:56.925Z,31.97
2018-02-16T03:28:02.268Z,32.73
2018-02-16T03:34:07.604Z,29.90
2018-02-16T03:40:12.184Z,31.20
2018-02-16T03:46:16.739Z,29.87
2018-02-16T03:52:22.781Z,30.30
2018-02-16T03:58:27.397Z,27.90
2018-02-16T04:04:31.927Z,31.67
2018-02-16T04:10:36.476Z,34.07
2018-02-16T04:16:41.148Z,34.17
2018-02-16T04:22:46.160Z,33.70
2018-02-16T04:28:51.489Z,29.57
2018-02-16T04:34:56.276Z,28.93
2018-02-16T04:41:00.845Z,30.93
2018-02-16T04:47:05.406Z,30.43
2018-02-16T04:53:09.991Z,31.63
2018-02-16T04:59:14.462Z,32.70
2018-02-16T05:05:19.081Z,28.37
2018-02-16T05:11:24.404Z,29.10
2018-02-16T05:17:28.878Z,29.60
2018-02-16T05:23:34.345Z,32.87
2018-02-16T05:29:38.864Z,31.30
2018-02-16T05:35:43.505Z,31.13
2018-02-16T05:41:48.087Z,28.53
2018-02-16T05:47:53.958Z,34.10
2018-02-16T05:53:58.634Z,35.27
2018-02-16T06:00:03.892Z,32.60
2018-02-16T06:06:08.385Z,35.53
2018-02-16T06:12:12.935Z,33.37
2018-02-16T06:18:17.429Z,32.60
2018-02-16T06:24:22.564Z,33.63
2018-02-16T06:30:27.078Z,31.90
2018-02-16T06:36:31.652Z,34.00
2018-02-16T06:42:36.176Z,32.93
2018-02-16T06:48:41.871Z,33.33
2018-02-16T06:54:46.383Z,30.60
2018-02-16T07:00:51.301Z,28.90
2018-02-16T07:06:56.646Z,26.47
2018-02-16T07:13:01.891Z,27.00
2018-02-16T07:19:06.463Z,25.83
2018-02-16T07:25:11.167Z,24.20
2018-02-16T07:31:16.877Z,25.63
2018-02-16T07:37:21.505Z,24.23
2018-02-16T07:43:26.751Z,26.80
2018-02-16T07:49:31.240Z,24.93
2018-02-16T07:55:35.767Z,25.00
2018-02-16T08:01:40.234Z,22.03
2018-02-16T08:07:44.742Z,24.40
2018-02-16T08:13:49.354Z,21.77
2018-02-16T08:19:54.486Z,21.90
2018-02-16T08:25:59.150Z,23.20
2018-02-16T08:32:04.391Z,22.43
2018-02-16T08:38:09.797Z,23.90
2018-02-16T08:44:14.273Z,21.70
2018-02-16T08:50:18.822Z,22.53
2018-02-16T08:56:23.752Z,22.00
2018-02-16T09:02:28.252Z,19.37
2018-02-16T09:08:32.750Z,19.37
2018-02-16T09:14:37.995Z,22.03
2018-02-16T09:20:42.710Z,19.87
2018-02-16T09:26:48.030Z,18.30
2018-02-16T09:32:53.216Z,17.13
2018-02-16T09:39:00.093Z,16.43
2018-02-16T09:45:04.811Z,18.53
2018-02-16T09:51:09.335Z,16.97
2018-02-16T09:57:13.857Z,18.00
2018-02-16T10:03:18.336Z,16.00
2018-02-16T10:09:22.846Z,16.50
2018-02-16T10:15:27.349Z,16.30
2018-02-16T10:21:31.815Z,17.77
2018-02-16T10:27:36.391Z,23.73
2018-02-16T10:33:42.501Z,18.63
2018-02-16T10:39:47.009Z,18.20
2018-02-16T10:45:52.681Z,15.47
2018-02-16T10:51:57.931Z,18.23
2018-02-16T10:58:02.462Z,18.90
2018-02-16T11:04:07.029Z,17.00
2018-02-16T11:10:12.288Z,18.10
2018-02-16T11:16:16.813Z,16.20
2018-02-16T11:22:22.093Z,16.23
2018-02-16T11:28:26.558Z,12.97
2018-02-16T11:34:31.035Z,12.43
2018-02-16T11:40:36.297Z,9.30
2018-02-16T11:46:40.766Z,8.00
2018-02-16T11:52:45.240Z,11.33
2018-02-16T11:58:49.810Z,7.27
2018-02-16T12:04:55.131Z,6.53
2018-02-16T12:10:59.790Z,6.47
2018-02-16T12:17:04.309Z,9.27
2018-02-16T12:23:08.785Z,8.30
2018-02-16T12:29:13.408Z,6.93
2018-02-16T12:35:18.027Z,9.30
2018-02-16T12:41:22.531Z,8.70
2018-02-16T12:47:27.808Z,6.57
2018-02-16T12:53:32.297Z,8.63
2018-02-16T12:59:36.769Z,7.90
2018-02-16T13:05:41.259Z,6.37
2018-02-16T13:11:45.817Z,6.13
2018-02-16T13:17:50.820Z,7.23
2018-02-16T13:23:55.329Z,5.40
2018-02-16T13:29:59.849Z,4.80
2018-02-16T13:36:04.340Z,5.63
2018-02-16T13:42:08.848Z,7.70
2018-02-16T13:48:14.114Z,5.40
2018-02-16T13:54:19.642Z,9.53
2018-02-16T14:00:24.262Z,9.73
2018-02-16T14:06:28.766Z,4.70
2018-02-16T14:12:33.336Z,7.83
2018-02-16T14:18:37.833Z,6.63
2018-02-16T14:24:42.351Z,6.40
2018-02-16T14:30:47.690Z,6.43
2018-02-16T14:36:52.553Z,7.10
2018-02-16T14:42:57.017Z,7.50
2018-02-16T14:49:02.258Z,11.33
2018-02-16T14:55:06.753Z,7.60
2018-02-16T15:01:11.230Z,7.90
2018-02-16T15:07:15.730Z,7.30
2018-02-16T15:13:20.694Z,9.60
2018-02-16T15:19:25.173Z,8.27
2018-02-16T15:25:30.442Z,8.97
2018-02-16T15:31:34.936Z,10.83
2018-02-16T15:37:38.694Z,11.63
2018-02-16T15:43:42.958Z,10.30
2018-02-16T15:49:48.310Z,12.60
2018-02-16T15:55:52.780Z,12.90
2018-02-16T16:01:58.084Z,14.80
2018-02-16T16:08:02.854Z,8.30
2018-02-16T16:14:08.153Z,7.87
2018-02-16T16:20:13.415Z,8.67
2018-02-16T16:26:18.023Z,7.53
2018-02-16T16:32:23.822Z,9.13
2018-02-16T16:38:28.367Z,9.17
2018-02-16T16:44:32.840Z,8.20
2018-02-16T16:50:37.360Z,8.40
2018-02-16T16:56:41.783Z,9.17
2018-02-16T17:02:46.253Z,11.53
2018-02-16T17:08:51.509Z,9.23
2018-02-16T17:14:56.175Z,17.37
2018-02-16T17:21:00.660Z,11.00
2018-02-16T17:27:05.251Z,16.97
2018-02-16T17:33:09.850Z,13.03
2018-02-16T17:39:14.341Z,12.57
2018-02-16T17:45:18.820Z,8.63
2018-02-16T17:51:23.365Z,7.13
2018-02-16T17:57:28.632Z,7.77
2018-02-16T18:03:33.106Z,6.97
2018-02-16T18:09:37.637Z,6.60
2018-02-16T18:15:42.134Z,6.40
2018-02-16T18:21:46.618Z,6.80
2018-02-16T18:27:51.320Z,7.43
2018-02-16T18:33:55.804Z,10.87
2018-02-16T18:40:00.244Z,9.87
2018-02-16T18:46:04.725Z,11.20
2018-02-16T18:52:09.186Z,10.57
2018-02-16T18:58:13.651Z,11.43
2018-02-16T19:04:19.320Z,11.90
2018-02-16T19:10:23.816Z,13.27
2018-02-16T19:16:28.487Z,12.40
2018-02-16T19:22:33.841Z,12.00
2018-02-16T19:28:38.395Z,14.07
2018-02-16T19:34:43.107Z,14.13
2018-02-16T19:40:48.100Z,12.63
2018-02-16T19:46:52.826Z,12.60
2018-02-16T19:52:57.310Z,15.97
2018-02-16T19:59:02.542Z,13.00
2018-02-16T20:05:07.025Z,13.70
2018-02-16T20:11:11.506Z,14.20
2018-02-16T20:17:16.106Z,13.47
2018-02-16T20:23:21.729Z,12.87
2018-02-16T20:29:26.333Z,13.70
2018-02-16T20:35:31.569Z,13.57
2018-02-16T20:41:36.178Z,12.73
2018-02-16T20:47:40.678Z,16.50
2018-02-16T20:53:45.953Z,14.47
2018-02-16T20:59:51.661Z,14.97
2018-02-16T21:05:56.210Z,15.10
2018-02-16T21:12:00.682Z,15.87
2018-02-16T21:18:05.174Z,16.80
2018-02-16T21:24:09.651Z,14.63
2018-02-16T21:30:14.136Z,14.27
2018-02-16T21:36:18.602Z,14.33
2018-02-16T21:42:23.135Z,12.67
2018-02-16T21:48:27.796Z,12.50
2018-02-16T21:54:32.273Z,13.50
2018-02-16T22:00:37.721Z,13.47
2018-02-16T22:06:43.096Z,11.90
2018-02-16T22:12:47.614Z,12.33
2018-02-16T22:18:53.382Z,14.30
2018-02-16T22:24:57.872Z,15.03
2018-02-16T22:31:02.398Z,16.43
2018-02-16T22:37:06.990Z,15.40
2018-02-16T22:43:12.314Z,16.90
2018-02-16T22:49:16.894Z,16.50
2018-02-16T22:55:22.633Z,16.80
2018-02-16T23:01:27.308Z,21.77
2018-02-16T23:07:31.882Z,19.93
2018-02-16T23:13:36.804Z,17.97
2018-02-16T23:19:41.299Z,18.47
2018-02-16T23:25:46.573Z,17.50
2018-02-16T23:31:51.974Z,19.20
2018-02-16T23:37:56.474Z,17.47
2018-02-16T23:44:01.711Z,19.33
2018-02-16T23:50:06.256Z,18.70
2018-02-16T23:56:10.946Z,18.83
